ADDS TAF Board (Experimental) INFO Settings

IDs: Format: Expanded Condensed

KSEA - Seattle-Tacoma Intl, WA, US

Issued at 1720 UTC 26 Apr 2015
Updated at: 1925 UTC 26 Apr 2015
Time1853Z 26/20Z 26/21Z 26/22Z 26/23Z 27/00Z 27/01Z 27/02Z 27/03Z 27/04Z 27/05Z 27/06Z 27/07Z 27/08Z
Type OBS PRVL PRVL PRVL PRVL PRVL PRVL PRVL PRVL PRVL PRVL PRVL PRVL PRVL
VIS 10 >6 >6 >6 >6 >6 >6 >6 >6 >6 >6 >6 >6 >6
CIG 220 90 90 70 70 70 70 40 40 40 40 40 40 50
Cover BKN OVC OVC OVC OVC OVC OVC OVC OVC OVC OVC OVC OVC OVC
FltCat VFR VFR VFR VFR VFR VFR VFR VFR VFR VFR VFR VFR VFR VFR
WX -- -- -- -- -- -- -- -RA -RA -RA -RA -RA -RA --
WDir 180 170 170 170 170 170 170 190 190 190 190 190 190 190
WSpd 6 6 6 8 8 8 8 8 8 8 8 8 8 8
WGst -- -- -- -- -- -- -- -- -- -- -- -- -- --
R16/34
XWnd 0 1 1 1 1 1 1 -1 -1 -1 -1 -1 -1 -1
HWnd 6 6 6 8 8 8 8 8 8 8 8 8 8 8

NOTE: TEMPO conditions in [brackets]. Keep in mind TEMPO conditions might be better (lower impact) than prevailing conditions.

Raw TAF
KSEA 261720Z 2618/2724 16004KT P6SM SCT100 OVC200
  FM262000 17006KT P6SM BKN090 OVC150
  FM262200 17008KT P6SM SCT040 OVC070
  FM270200 19008KT P6SM -RA SCT025 OVC040
  FM270800 19008KT P6SM SCT035 OVC050
  FM271700 25005KT P6SM SCT050 BKN100
  FM272100 33005KT P6SM FEW060 SCT120


Raw METAR
KSEA 261853Z 18006KT 10SM FEW020 SCT110 BKN220 12/03 A3023 RMK AO2 SLP244 T01220028
KSEA 261753Z 16003KT 10SM FEW010 BKN110 OVC220 11/03 A3022 RMK AO2 SLP243 T01060028 10111 20044 53015
KSEA 261653Z 16004KT 10SM FEW010 SCT120 BKN220 09/03 A3021 RMK AO2 SLP238 T00940028

METAR Board
Radar Display
Forecast Discussion

TAF Board Legend

Potential Impact
Threat None Slight Moderate High
Visibility (sm) ≥5.1 5.1>X≥3 3>X≥1 <1
Ceiling (100 ft) ≥30.1 30.1>X≥10 10>X≥5 <5
Wind Speed (kt) <10 10≤X<20 20≤X<30 ≥30
Wind Gust (kt) <15 15≤X<25 25≤X<35 ≥35
Weather No Wx Reported VCTS,-TS,-FZRA,SN TS,FZRA +TS,+FZRA,+SN